Harleston, Mississippi
Current Conditions -  °F | °C
As of 1:39 AM on Monday 22 Dec 2014 (Local Time) from KMOB Reporting Station
Overcast Overcast  
Wind Chill: 54°   Ceiling: 400
Heat Index: 54°   Visibility: 7mi
Dew Point: 54°   Wind: 9mph
Humidity: 100%   Direction: 70°ENE
Pressure: 29.93"   Gusts: NA
Location:  30.8443°N, 88.5703°W
Report Text: KMOB 220739Z AUTO 07008KT 7SM OVC004 12/12 A2993 RMK AO2 PRESFR T01220122 $
Loading
Personal Weather Stations






























Interactive Weather Map New forecast layout! Learn more

10-Day Weather Forecast

Advertisements
Track Severe Weather on mobile